Post Falls, Idaho
Current Conditions -  °F | °C
As of 4:15 PM on Saturday 22 Nov 2014 (Local Time) from KCOE Reporting Station
Clear Clear  
Wind Chill: 28°   Ceiling: Unl
Heat Index: 36°   Visibility: 10mi
Dew Point: 28°   Wind: 10mph
Humidity: 75%   Direction: 240°WSW
Pressure: 29.75"   Gusts: NA
Location:  47.71°N, 116.94°W
Report Text: KCOE 230015Z AUTO 24009KT 10SM CLR 02/M02 A2975 RMK AO1
Loading
Personal Weather Stations






























Interactive Weather Map New forecast layout! Learn more

10-Day Weather Forecast

Advertisements
Track Severe Weather on mobile